sensor_id;sensor_type;location;lat;lon;timestamp;P1;durP1;ratioP1;P2;durP2;ratioP2
18455;SDS011;9357;49.900;8.208;2023-11-21T00:00:46;2.57;;;1.50;;
18455;SDS011;9357;49.900;8.208;2023-11-21T00:02:19;3.80;;;1.60;;
18455;SDS011;9357;49.900;8.208;2023-11-21T00:03:52;3.67;;;1.33;;
18455;SDS011;9357;49.900;8.208;2023-11-21T00:05:26;3.77;;;1.60;;
18455;SDS011;9357;49.900;8.208;2023-11-21T00:06:58;3.15;;;1.70;;
18455;SDS011;9357;49.900;8.208;2023-11-21T00:08:31;3.90;;;1.40;;
18455;SDS011;9357;49.900;8.208;2023-11-21T00:10:02;4.53;;;1.70;;
18455;SDS011;9357;49.900;8.208;2023-11-21T00:11:37;3.88;;;1.67;;
18455;SDS011;9357;49.900;8.208;2023-11-21T00:13:09;3.17;;;1.58;;
18455;SDS011;9357;49.900;8.208;2023-11-21T00:14:43;2.63;;;1.50;;
18455;SDS011;9357;49.900;8.208;2023-11-21T00:16:15;4.60;;;1.50;;
18455;SDS011;9357;49.900;8.208;2023-11-21T00:17:48;2.75;;;1.30;;
18455;SDS011;9357;49.900;8.208;2023-11-21T00:19:22;3.40;;;1.40;;
18455;SDS011;9357;49.900;8.208;2023-11-21T00:20:54;2.45;;;1.45;;
18455;SDS011;9357;49.900;8.208;2023-11-21T00:22:26;2.95;;;1.48;;
18455;SDS011;9357;49.900;8.208;2023-11-21T00:23:59;4.67;;;1.50;;
18455;SDS011;9357;49.900;8.208;2023-11-21T00:25:31;6.13;;;1.97;;
18455;SDS011;9357;49.900;8.208;2023-11-21T00:27:04;3.77;;;1.90;;
18455;SDS011;9357;49.900;8.208;2023-11-21T00:28:37;3.85;;;1.60;;
18455;SDS011;9357;49.900;8.208;2023-11-21T00:30:10;4.07;;;1.60;;
18455;SDS011;9357;49.900;8.208;2023-11-21T00:31:43;2.27;;;1.50;;
18455;SDS011;9357;49.900;8.208;2023-11-21T00:33:16;6.10;;;1.83;;
18455;SDS011;9357;49.900;8.208;2023-11-21T00:34:49;2.83;;;1.50;;
18455;SDS011;9357;49.900;8.208;2023-11-21T00:36:22;5.05;;;1.60;;
18455;SDS011;9357;49.900;8.208;2023-11-21T00:37:53;3.67;;;1.60;;
18455;SDS011;9357;49.900;8.208;2023-11-21T00:39:26;3.60;;;1.60;;
18455;SDS011;9357;49.900;8.208;2023-11-21T00:40:58;6.80;;;1.77;;
18455;SDS011;9357;49.900;8.208;2023-11-21T00:42:31;1.88;;;1.20;;
18455;SDS011;9357;49.900;8.208;2023-11-21T00:44:04;4.78;;;1.77;;
18455;SDS011;9357;49.900;8.208;2023-11-21T00:45:37;2.20;;;1.65;;
18455;SDS011;9357;49.900;8.208;2023-11-21T00:47:11;3.10;;;1.60;;
18455;SDS011;9357;49.900;8.208;2023-11-21T00:48:44;5.05;;;2.03;;
18455;SDS011;9357;49.900;8.208;2023-11-21T00:50:17;4.13;;;1.80;;
18455;SDS011;9357;49.900;8.208;2023-11-21T00:51:50;5.97;;;2.33;;
18455;SDS011;9357;49.900;8.208;2023-11-21T00:53:22;3.27;;;1.90;;
18455;SDS011;9357;49.900;8.208;2023-11-21T00:54:54;4.70;;;2.10;;
18455;SDS011;9357;49.900;8.208;2023-11-21T00:56:26;5.63;;;2.20;;
18455;SDS011;9357;49.900;8.208;2023-11-21T00:57:59;3.92;;;1.92;;
18455;SDS011;9357;49.900;8.208;2023-11-21T00:59:34;3.47;;;1.80;;
18455;SDS011;9357;49.900;8.208;2023-11-21T01:01:06;3.33;;;1.67;;
18455;SDS011;9357;49.900;8.208;2023-11-21T01:02:39;3.30;;;1.33;;
18455;SDS011;9357;49.900;8.208;2023-11-21T01:04:11;4.10;;;1.70;;
18455;SDS011;9357;49.900;8.208;2023-11-21T01:05:45;3.20;;;2.08;;
18455;SDS011;9357;49.900;8.208;2023-11-21T01:07:20;1.57;;;1.40;;
18455;SDS011;9357;49.900;8.208;2023-11-21T01:08:53;2.05;;;1.27;;
18455;SDS011;9357;49.900;8.208;2023-11-21T01:10:26;3.17;;;1.87;;
18455;SDS011;9357;49.900;8.208;2023-11-21T01:11:57;5.10;;;1.80;;
18455;SDS011;9357;49.900;8.208;2023-11-21T01:13:30;3.08;;;1.70;;
18455;SDS011;9357;49.900;8.208;2023-11-21T01:15:02;3.35;;;1.60;;
18455;SDS011;9357;49.900;8.208;2023-11-21T01:16:38;2.95;;;1.83;;
18455;SDS011;9357;49.900;8.208;2023-11-21T01:18:10;3.10;;;1.80;;
18455;SDS011;9357;49.900;8.208;2023-11-21T01:19:42;4.78;;;1.95;;
18455;SDS011;9357;49.900;8.208;2023-11-21T01:21:15;2.45;;;1.40;;
18455;SDS011;9357;49.900;8.208;2023-11-21T01:22:48;1.50;;;1.40;;
18455;SDS011;9357;49.900;8.208;2023-11-21T01:24:20;2.33;;;1.60;;
18455;SDS011;9357;49.900;8.208;2023-11-21T01:25:55;2.55;;;1.88;;
18455;SDS011;9357;49.900;8.208;2023-11-21T01:27:28;2.53;;;1.60;;
18455;SDS011;9357;49.900;8.208;2023-11-21T01:29:00;4.23;;;1.93;;
18455;SDS011;9357;49.900;8.208;2023-11-21T01:30:32;4.63;;;1.85;;
18455;SDS011;9357;49.900;8.208;2023-11-21T01:32:06;3.93;;;1.40;;
18455;SDS011;9357;49.900;8.208;2023-11-21T01:33:39;1.77;;;1.37;;
18455;SDS011;9357;49.900;8.208;2023-11-21T01:35:12;2.03;;;1.33;;
18455;SDS011;9357;49.900;8.208;2023-11-21T01:36:46;3.30;;;1.63;;
18455;SDS011;9357;49.900;8.208;2023-11-21T01:38:19;1.85;;;1.50;;
18455;SDS011;9357;49.900;8.208;2023-11-21T01:39:52;3.85;;;1.50;;
18455;SDS011;9357;49.900;8.208;2023-11-21T01:41:23;2.50;;;1.70;;
18455;SDS011;9357;49.900;8.208;2023-11-21T01:42:58;3.27;;;1.70;;
18455;SDS011;9357;49.900;8.208;2023-11-21T01:44:30;2.05;;;1.70;;
18455;SDS011;9357;49.900;8.208;2023-11-21T01:46:02;3.47;;;1.60;;
18455;SDS011;9357;49.900;8.208;2023-11-21T01:47:37;2.40;;;1.70;;
18455;SDS011;9357;49.900;8.208;2023-11-21T01:49:09;2.67;;;1.53;;
18455;SDS011;9357;49.900;8.208;2023-11-21T01:50:44;3.13;;;1.90;;
18455;SDS011;9357;49.900;8.208;2023-11-21T01:52:18;2.73;;;1.77;;
18455;SDS011;9357;49.900;8.208;2023-11-21T01:53:51;2.10;;;1.80;;
18455;SDS011;9357;49.900;8.208;2023-11-21T01:55:24;2.93;;;1.77;;
18455;SDS011;9357;49.900;8.208;2023-11-21T01:56:59;4.77;;;1.87;;
18455;SDS011;9357;49.900;8.208;2023-11-21T01:58:33;2.07;;;1.87;;
18455;SDS011;9357;49.900;8.208;2023-11-21T02:00:06;4.37;;;1.70;;
18455;SDS011;9357;49.900;8.208;2023-11-21T02:01:46;1.60;;;1.50;;
18455;SDS011;9357;49.900;8.208;2023-11-21T02:03:18;2.30;;;1.73;;
18455;SDS011;9357;49.900;8.208;2023-11-21T02:04:52;2.60;;;1.53;;
18455;SDS011;9357;49.900;8.208;2023-11-21T02:06:23;2.37;;;1.40;;
18455;SDS011;9357;49.900;8.208;2023-11-21T02:07:58;2.80;;;1.80;;
18455;SDS011;9357;49.900;8.208;2023-11-21T02:09:30;2.27;;;1.80;;
18455;SDS011;9357;49.900;8.208;2023-11-21T02:11:03;1.80;;;1.70;;
18455;SDS011;9357;49.900;8.208;2023-11-21T02:12:35;3.60;;;1.83;;
18455;SDS011;9357;49.900;8.208;2023-11-21T02:14:10;2.30;;;1.90;;
18455;SDS011;9357;49.900;8.208;2023-11-21T02:15:41;3.00;;;1.93;;
18455;SDS011;9357;49.900;8.208;2023-11-21T02:17:14;2.33;;;2.10;;
18455;SDS011;9357;49.900;8.208;2023-11-21T02:18:46;2.87;;;2.07;;
18455;SDS011;9357;49.900;8.208;2023-11-21T02:20:20;2.20;;;1.90;;
18455;SDS011;9357;49.900;8.208;2023-11-21T02:21:54;2.43;;;1.80;;
18455;SDS011;9357;49.900;8.208;2023-11-21T02:23:32;3.50;;;1.93;;
18455;SDS011;9357;49.900;8.208;2023-11-21T02:25:06;3.00;;;2.20;;
18455;SDS011;9357;49.900;8.208;2023-11-21T02:26:38;3.37;;;2.23;;
18455;SDS011;9357;49.900;8.208;2023-11-21T02:28:12;4.33;;;2.27;;
18455;SDS011;9357;49.900;8.208;2023-11-21T02:29:46;2.07;;;1.90;;
18455;SDS011;9357;49.900;8.208;2023-11-21T02:31:19;4.30;;;2.50;;
18455;SDS011;9357;49.900;8.208;2023-11-21T02:32:51;3.00;;;2.10;;
18455;SDS011;9357;49.900;8.208;2023-11-21T02:34:25;3.23;;;2.23;;
18455;SDS011;9357;49.900;8.208;2023-11-21T02:35:57;4.53;;;2.20;;
18455;SDS011;9357;49.900;8.208;2023-11-21T02:37:30;2.20;;;2.00;;
18455;SDS011;9357;49.900;8.208;2023-11-21T02:39:03;5.57;;;2.50;;
18455;SDS011;9357;49.900;8.208;2023-11-21T02:40:38;3.38;;;2.50;;
18455;SDS011;9357;49.900;8.208;2023-11-21T02:42:10;2.93;;;2.30;;
18455;SDS011;9357;49.900;8.208;2023-11-21T02:43:43;3.90;;;2.23;;
18455;SDS011;9357;49.900;8.208;2023-11-21T02:45:15;2.97;;;2.33;;
18455;SDS011;9357;49.900;8.208;2023-11-21T02:46:48;3.37;;;2.33;;
18455;SDS011;9357;49.900;8.208;2023-11-21T02:48:20;4.60;;;2.30;;
18455;SDS011;9357;49.900;8.208;2023-11-21T02:49:55;3.43;;;2.70;;
18455;SDS011;9357;49.900;8.208;2023-11-21T02:51:27;4.27;;;2.50;;
18455;SDS011;9357;49.900;8.208;2023-11-21T02:53:00;2.87;;;2.40;;
18455;SDS011;9357;49.900;8.208;2023-11-21T02:54:34;3.07;;;2.47;;
18455;SDS011;9357;49.900;8.208;2023-11-21T02:56:07;4.27;;;2.47;;
18455;SDS011;9357;49.900;8.208;2023-11-21T02:57:39;4.67;;;2.47;;
18455;SDS011;9357;49.900;8.208;2023-11-21T02:59:12;3.47;;;2.80;;
18455;SDS011;9357;49.900;8.208;2023-11-21T03:00:44;3.43;;;2.70;;
18455;SDS011;9357;49.900;8.208;2023-11-21T03:02:17;6.23;;;4.40;;
18455;SDS011;9357;49.900;8.208;2023-11-21T03:03:49;7.27;;;4.67;;
18455;SDS011;9357;49.900;8.208;2023-11-21T03:05:22;6.40;;;4.47;;
18455;SDS011;9357;49.900;8.208;2023-11-21T03:06:54;7.83;;;5.17;;
18455;SDS011;9357;49.900;8.208;2023-11-21T03:08:26;6.23;;;5.20;;
18455;SDS011;9357;49.900;8.208;2023-11-21T03:10:00;6.83;;;5.40;;
18455;SDS011;9357;49.900;8.208;2023-11-21T03:11:32;7.23;;;5.07;;
18455;SDS011;9357;49.900;8.208;2023-11-21T03:13:05;6.47;;;5.33;;
18455;SDS011;9357;49.900;8.208;2023-11-21T03:14:37;6.70;;;5.13;;
18455;SDS011;9357;49.900;8.208;2023-11-21T03:16:10;6.57;;;4.87;;
18455;SDS011;9357;49.900;8.208;2023-11-21T03:17:43;5.93;;;4.67;;
18455;SDS011;9357;49.900;8.208;2023-11-21T03:19:16;5.77;;;4.73;;
18455;SDS011;9357;49.900;8.208;2023-11-21T03:20:48;7.30;;;5.10;;
18455;SDS011;9357;49.900;8.208;2023-11-21T03:22:21;7.03;;;5.20;;
18455;SDS011;9357;49.900;8.208;2023-11-21T03:23:52;5.87;;;4.33;;
18455;SDS011;9357;49.900;8.208;2023-11-21T03:25:26;6.53;;;4.93;;
18455;SDS011;9357;49.900;8.208;2023-11-21T03:26:58;7.23;;;5.00;;
18455;SDS011;9357;49.900;8.208;2023-11-21T03:28:31;7.07;;;5.30;;
18455;SDS011;9357;49.900;8.208;2023-11-21T03:30:03;6.93;;;4.87;;
18455;SDS011;9357;49.900;8.208;2023-11-21T03:31:37;6.63;;;4.80;;
18455;SDS011;9357;49.900;8.208;2023-11-21T03:33:09;6.63;;;5.10;;
18455;SDS011;9357;49.900;8.208;2023-11-21T03:34:53;6.23;;;4.93;;
18455;SDS011;9357;49.900;8.208;2023-11-21T03:36:26;7.80;;;5.10;;
18455;SDS011;9357;49.900;8.208;2023-11-21T03:37:59;7.17;;;5.20;;
18455;SDS011;9357;49.900;8.208;2023-11-21T03:39:31;9.90;;;5.30;;
18455;SDS011;9357;49.900;8.208;2023-11-21T03:41:05;6.50;;;5.27;;
18455;SDS011;9357;49.900;8.208;2023-11-21T03:42:37;5.93;;;4.63;;
18455;SDS011;9357;49.900;8.208;2023-11-21T03:44:11;6.47;;;4.90;;
18455;SDS011;9357;49.900;8.208;2023-11-21T03:45:43;6.03;;;5.10;;
18455;SDS011;9357;49.900;8.208;2023-11-21T03:47:15;7.80;;;5.20;;
18455;SDS011;9357;49.900;8.208;2023-11-21T03:48:48;7.47;;;5.40;;
18455;SDS011;9357;49.900;8.208;2023-11-21T03:50:20;8.77;;;5.57;;
18455;SDS011;9357;49.900;8.208;2023-11-21T03:51:52;7.70;;;5.70;;
18455;SDS011;9357;49.900;8.208;2023-11-21T03:53:25;8.47;;;6.00;;
18455;SDS011;9357;49.900;8.208;2023-11-21T03:54:57;9.20;;;6.70;;
18455;SDS011;9357;49.900;8.208;2023-11-21T03:56:31;8.90;;;6.90;;
18455;SDS011;9357;49.900;8.208;2023-11-21T03:58:03;12.40;;;8.20;;
18455;SDS011;9357;49.900;8.208;2023-11-21T03:59:35;11.77;;;7.00;;
18455;SDS011;9357;49.900;8.208;2023-11-21T04:01:07;10.40;;;7.57;;
18455;SDS011;9357;49.900;8.208;2023-11-21T04:02:40;12.30;;;8.60;;
18455;SDS011;9357;49.900;8.208;2023-11-21T04:04:12;11.77;;;8.30;;
18455;SDS011;9357;49.900;8.208;2023-11-21T04:05:45;12.83;;;8.13;;
18455;SDS011;9357;49.900;8.208;2023-11-21T04:07:17;11.87;;;7.87;;
18455;SDS011;9357;49.900;8.208;2023-11-21T04:08:49;13.90;;;8.57;;
18455;SDS011;9357;49.900;8.208;2023-11-21T04:10:21;14.85;;;8.45;;
18455;SDS011;9357;49.900;8.208;2023-11-21T04:11:55;13.67;;;8.60;;
18455;SDS011;9357;49.900;8.208;2023-11-21T04:13:27;13.87;;;9.67;;
18455;SDS011;9357;49.900;8.208;2023-11-21T04:15:00;15.07;;;10.07;;
18455;SDS011;9357;49.900;8.208;2023-11-21T04:16:31;16.33;;;10.10;;
18455;SDS011;9357;49.900;8.208;2023-11-21T04:18:04;17.03;;;9.57;;
18455;SDS011;9357;49.900;8.208;2023-11-21T04:19:37;22.07;;;11.07;;
18455;SDS011;9357;49.900;8.208;2023-11-21T04:21:09;24.23;;;11.90;;
18455;SDS011;9357;49.900;8.208;2023-11-21T04:22:43;22.97;;;11.10;;
18455;SDS011;9357;49.900;8.208;2023-11-21T04:24:16;51.70;;;12.70;;
18455;SDS011;9357;49.900;8.208;2023-11-21T04:25:49;44.42;;;12.63;;
18455;SDS011;9357;49.900;8.208;2023-11-21T04:27:23;47.63;;;13.17;;
18455;SDS011;9357;49.900;8.208;2023-11-21T04:28:54;39.80;;;13.10;;
18455;SDS011;9357;49.900;8.208;2023-11-21T04:30:27;53.42;;;13.57;;
18455;SDS011;9357;49.900;8.208;2023-11-21T04:31:59;43.08;;;14.32;;
18455;SDS011;9357;49.900;8.208;2023-11-21T04:33:32;33.00;;;13.93;;
18455;SDS011;9357;49.900;8.208;2023-11-21T04:35:04;29.58;;;14.50;;
18455;SDS011;9357;49.900;8.208;2023-11-21T04:36:37;29.95;;;14.43;;
18455;SDS011;9357;49.900;8.208;2023-11-21T04:38:11;30.95;;;14.77;;
18455;SDS011;9357;49.900;8.208;2023-11-21T04:39:43;27.90;;;14.60;;
18455;SDS011;9357;49.900;8.208;2023-11-21T04:41:15;24.10;;;13.38;;
18455;SDS011;9357;49.900;8.208;2023-11-21T04:42:50;23.67;;;13.13;;
18455;SDS011;9357;49.900;8.208;2023-11-21T04:44:22;25.25;;;13.40;;
18455;SDS011;9357;49.900;8.208;2023-11-21T04:45:55;24.57;;;13.23;;
18455;SDS011;9357;49.900;8.208;2023-11-21T04:47:26;22.20;;;12.15;;
18455;SDS011;9357;49.900;8.208;2023-11-21T04:49:00;23.33;;;11.53;;
18455;SDS011;9357;49.900;8.208;2023-11-21T04:50:32;22.15;;;10.93;;
18455;SDS011;9357;49.900;8.208;2023-11-21T04:52:05;23.95;;;11.30;;
18455;SDS011;9357;49.900;8.208;2023-11-21T04:53:39;18.65;;;10.70;;
18455;SDS011;9357;49.900;8.208;2023-11-21T04:55:11;19.45;;;10.55;;
18455;SDS011;9357;49.900;8.208;2023-11-21T04:56:43;17.60;;;9.43;;
18455;SDS011;9357;49.900;8.208;2023-11-21T04:58:18;17.10;;;10.17;;
18455;SDS011;9357;49.900;8.208;2023-11-21T04:59:52;18.13;;;10.07;;
18455;SDS011;9357;49.900;8.208;2023-11-21T05:01:23;18.02;;;10.43;;
18455;SDS011;9357;49.900;8.208;2023-11-21T05:02:56;15.30;;;9.80;;
18455;SDS011;9357;49.900;8.208;2023-11-21T05:04:28;14.30;;;9.02;;
18455;SDS011;9357;49.900;8.208;2023-11-21T05:06:01;17.57;;;9.47;;
18455;SDS011;9357;49.900;8.208;2023-11-21T05:07:33;14.32;;;8.25;;
18455;SDS011;9357;49.900;8.208;2023-11-21T05:09:07;15.63;;;8.77;;
18455;SDS011;9357;49.900;8.208;2023-11-21T05:10:43;11.82;;;8.07;;
18455;SDS011;9357;49.900;8.208;2023-11-21T05:12:15;15.02;;;9.35;;
18455;SDS011;9357;49.900;8.208;2023-11-21T05:13:48;14.63;;;8.57;;
18455;SDS011;9357;49.900;8.208;2023-11-21T05:15:22;12.70;;;8.47;;
18455;SDS011;9357;49.900;8.208;2023-11-21T05:16:54;14.02;;;8.48;;
18455;SDS011;9357;49.900;8.208;2023-11-21T05:18:27;12.52;;;8.30;;
18455;SDS011;9357;49.900;8.208;2023-11-21T05:20:01;12.77;;;7.65;;
18455;SDS011;9357;49.900;8.208;2023-11-21T05:21:34;13.75;;;8.73;;
18455;SDS011;9357;49.900;8.208;2023-11-21T05:23:07;10.88;;;8.35;;
18455;SDS011;9357;49.900;8.208;2023-11-21T05:24:40;10.65;;;7.88;;
18455;SDS011;9357;49.900;8.208;2023-11-21T05:26:12;13.05;;;8.40;;
18455;SDS011;9357;49.900;8.208;2023-11-21T05:27:45;14.20;;;9.07;;
18455;SDS011;9357;49.900;8.208;2023-11-21T05:29:18;12.90;;;8.75;;
18455;SDS011;9357;49.900;8.208;2023-11-21T05:30:51;14.65;;;9.65;;
18455;SDS011;9357;49.900;8.208;2023-11-21T05:32:37;12.97;;;9.03;;
18455;SDS011;9357;49.900;8.208;2023-11-21T05:34:10;13.35;;;9.23;;
18455;SDS011;9357;49.900;8.208;2023-11-21T05:35:43;13.63;;;9.80;;
18455;SDS011;9357;49.900;8.208;2023-11-21T05:37:16;14.55;;;9.43;;
18455;SDS011;9357;49.900;8.208;2023-11-21T05:38:48;16.10;;;9.47;;
18455;SDS011;9357;49.900;8.208;2023-11-21T05:40:21;12.83;;;9.30;;
18455;SDS011;9357;49.900;8.208;2023-11-21T05:41:54;13.82;;;9.20;;
18455;SDS011;9357;49.900;8.208;2023-11-21T05:43:28;12.38;;;7.93;;
18455;SDS011;9357;49.900;8.208;2023-11-21T05:45:03;10.27;;;7.47;;
18455;SDS011;9357;49.900;8.208;2023-11-21T05:46:41;12.45;;;8.40;;
18455;SDS011;9357;49.900;8.208;2023-11-21T05:48:14;13.80;;;7.72;;
18455;SDS011;9357;49.900;8.208;2023-11-21T05:49:47;13.25;;;8.63;;
18455;SDS011;9357;49.900;8.208;2023-11-21T05:51:22;11.83;;;7.67;;
18455;SDS011;9357;49.900;8.208;2023-11-21T05:52:56;11.93;;;8.18;;
18455;SDS011;9357;49.900;8.208;2023-11-21T05:54:29;11.20;;;7.70;;
18455;SDS011;9357;49.900;8.208;2023-11-21T05:56:01;13.50;;;9.27;;
18455;SDS011;9357;49.900;8.208;2023-11-21T05:57:35;12.40;;;8.00;;
18455;SDS011;9357;49.900;8.208;2023-11-21T05:59:09;12.05;;;7.70;;
18455;SDS011;9357;49.900;8.208;2023-11-21T06:00:42;11.95;;;8.25;;
18455;SDS011;9357;49.900;8.208;2023-11-21T06:02:15;10.73;;;8.00;;
18455;SDS011;9357;49.900;8.208;2023-11-21T06:03:47;12.27;;;8.52;;
18455;SDS011;9357;49.900;8.208;2023-11-21T06:05:21;10.70;;;8.45;;
18455;SDS011;9357;49.900;8.208;2023-11-21T06:06:54;11.47;;;8.57;;
18455;SDS011;9357;49.900;8.208;2023-11-21T06:08:27;11.70;;;7.43;;
18455;SDS011;9357;49.900;8.208;2023-11-21T06:09:59;10.45;;;7.78;;
18455;SDS011;9357;49.900;8.208;2023-11-21T06:11:34;10.55;;;7.53;;
18455;SDS011;9357;49.900;8.208;2023-11-21T06:13:05;8.80;;;6.88;;
18455;SDS011;9357;49.900;8.208;2023-11-21T06:14:38;9.50;;;6.63;;
18455;SDS011;9357;49.900;8.208;2023-11-21T06:16:11;9.30;;;6.50;;
18455;SDS011;9357;49.900;8.208;2023-11-21T06:17:47;8.93;;;6.45;;
18455;SDS011;9357;49.900;8.208;2023-11-21T06:19:23;10.60;;;6.60;;
18455;SDS011;9357;49.900;8.208;2023-11-21T06:20:56;9.13;;;5.97;;
18455;SDS011;9357;49.900;8.208;2023-11-21T06:22:28;7.50;;;5.90;;
18455;SDS011;9357;49.900;8.208;2023-11-21T06:24:01;9.85;;;6.07;;
18455;SDS011;9357;49.900;8.208;2023-11-21T06:25:33;7.60;;;5.67;;
18455;SDS011;9357;49.900;8.208;2023-11-21T06:27:07;7.90;;;5.90;;
18455;SDS011;9357;49.900;8.208;2023-11-21T06:28:39;7.43;;;5.77;;
18455;SDS011;9357;49.900;8.208;2023-11-21T06:30:12;7.23;;;5.83;;
18455;SDS011;9357;49.900;8.208;2023-11-21T06:31:46;7.60;;;5.82;;
18455;SDS011;9357;49.900;8.208;2023-11-21T06:33:19;7.32;;;5.75;;
18455;SDS011;9357;49.900;8.208;2023-11-21T06:34:53;8.57;;;6.20;;
18455;SDS011;9357;49.900;8.208;2023-11-21T06:36:26;8.88;;;6.40;;
18455;SDS011;9357;49.900;8.208;2023-11-21T06:37:57;7.75;;;6.15;;
18455;SDS011;9357;49.900;8.208;2023-11-21T06:39:30;9.43;;;6.63;;
18455;SDS011;9357;49.900;8.208;2023-11-21T06:41:02;8.23;;;6.57;;
18455;SDS011;9357;49.900;8.208;2023-11-21T06:42:35;11.18;;;6.75;;
18455;SDS011;9357;49.900;8.208;2023-11-21T06:44:09;9.10;;;6.83;;
18455;SDS011;9357;49.900;8.208;2023-11-21T06:45:42;7.93;;;6.47;;
18455;SDS011;9357;49.900;8.208;2023-11-21T06:47:16;8.53;;;6.10;;
18455;SDS011;9357;49.900;8.208;2023-11-21T06:48:49;9.30;;;6.28;;
18455;SDS011;9357;49.900;8.208;2023-11-21T06:50:22;8.35;;;6.30;;
18455;SDS011;9357;49.900;8.208;2023-11-21T06:51:54;9.17;;;6.40;;
18455;SDS011;9357;49.900;8.208;2023-11-21T06:53:26;9.57;;;6.88;;
18455;SDS011;9357;49.900;8.208;2023-11-21T06:54:58;7.33;;;6.10;;
18455;SDS011;9357;49.900;8.208;2023-11-21T06:56:31;8.10;;;5.63;;
18455;SDS011;9357;49.900;8.208;2023-11-21T06:58:04;6.57;;;5.60;;
18455;SDS011;9357;49.900;8.208;2023-11-21T06:59:37;7.32;;;5.47;;
18455;SDS011;9357;49.900;8.208;2023-11-21T07:01:09;8.50;;;5.28;;
18455;SDS011;9357;49.900;8.208;2023-11-21T07:02:43;8.05;;;6.05;;
18455;SDS011;9357;49.900;8.208;2023-11-21T07:04:16;9.57;;;5.37;;
18455;SDS011;9357;49.900;8.208;2023-11-21T07:05:49;7.47;;;5.43;;
18455;SDS011;9357;49.900;8.208;2023-11-21T07:07:22;5.73;;;5.10;;
18455;SDS011;9357;49.900;8.208;2023-11-21T07:08:54;5.83;;;5.23;;
18455;SDS011;9357;49.900;8.208;2023-11-21T07:10:26;6.57;;;5.10;;
18455;SDS011;9357;49.900;8.208;2023-11-21T07:11:58;7.47;;;5.15;;
18455;SDS011;9357;49.900;8.208;2023-11-21T07:13:31;6.88;;;4.88;;
18455;SDS011;9357;49.900;8.208;2023-11-21T07:15:04;6.23;;;5.10;;
18455;SDS011;9357;49.900;8.208;2023-11-21T07:16:40;6.50;;;4.80;;
18455;SDS011;9357;49.900;8.208;2023-11-21T07:18:14;6.72;;;5.20;;
18455;SDS011;9357;49.900;8.208;2023-11-21T07:19:47;8.10;;;5.50;;
18455;SDS011;9357;49.900;8.208;2023-11-21T07:21:18;5.93;;;4.97;;
18455;SDS011;9357;49.900;8.208;2023-11-21T07:22:52;6.55;;;4.80;;
18455;SDS011;9357;49.900;8.208;2023-11-21T07:24:24;6.83;;;4.90;;
18455;SDS011;9357;49.900;8.208;2023-11-21T07:25:57;8.60;;;5.73;;
18455;SDS011;9357;49.900;8.208;2023-11-21T07:27:29;6.22;;;4.80;;
18455;SDS011;9357;49.900;8.208;2023-11-21T07:29:04;7.43;;;5.33;;
18455;SDS011;9357;49.900;8.208;2023-11-21T07:30:37;7.90;;;5.27;;
18455;SDS011;9357;49.900;8.208;2023-11-21T07:32:10;6.93;;;5.20;;
18455;SDS011;9357;49.900;8.208;2023-11-21T07:33:43;8.00;;;5.10;;
18455;SDS011;9357;49.900;8.208;2023-11-21T07:35:18;6.68;;;5.00;;
18455;SDS011;9357;49.900;8.208;2023-11-21T07:36:50;6.82;;;4.80;;
18455;SDS011;9357;49.900;8.208;2023-11-21T07:38:23;6.82;;;5.00;;
18455;SDS011;9357;49.900;8.208;2023-11-21T07:39:54;7.20;;;5.45;;
18455;SDS011;9357;49.900;8.208;2023-11-21T07:41:27;5.70;;;5.10;;
18455;SDS011;9357;49.900;8.208;2023-11-21T07:43:02;6.85;;;5.28;;
18455;SDS011;9357;49.900;8.208;2023-11-21T07:44:35;6.53;;;5.23;;
18455;SDS011;9357;49.900;8.208;2023-11-21T07:46:07;6.97;;;5.50;;
18455;SDS011;9357;49.900;8.208;2023-11-21T07:47:39;5.80;;;5.00;;
18455;SDS011;9357;49.900;8.208;2023-11-21T07:49:13;6.87;;;5.10;;
18455;SDS011;9357;49.900;8.208;2023-11-21T07:50:48;5.87;;;5.27;;
18455;SDS011;9357;49.900;8.208;2023-11-21T07:52:21;6.65;;;5.30;;
18455;SDS011;9357;49.900;8.208;2023-11-21T07:53:52;6.33;;;5.53;;
18455;SDS011;9357;49.900;8.208;2023-11-21T07:55:25;7.70;;;5.90;;
18455;SDS011;9357;49.900;8.208;2023-11-21T07:56:58;6.07;;;5.35;;
18455;SDS011;9357;49.900;8.208;2023-11-21T07:58:30;7.78;;;5.30;;
18455;SDS011;9357;49.900;8.208;2023-11-21T08:00:05;7.23;;;5.90;;
18455;SDS011;9357;49.900;8.208;2023-11-21T08:01:40;6.77;;;5.80;;
18455;SDS011;9357;49.900;8.208;2023-11-21T08:03:14;7.40;;;6.38;;
18455;SDS011;9357;49.900;8.208;2023-11-21T08:04:48;7.18;;;6.05;;
18455;SDS011;9357;49.900;8.208;2023-11-21T08:06:21;7.37;;;6.00;;
18455;SDS011;9357;49.900;8.208;2023-11-21T08:07:53;8.33;;;5.77;;
18455;SDS011;9357;49.900;8.208;2023-11-21T08:09:26;8.15;;;6.20;;
18455;SDS011;9357;49.900;8.208;2023-11-21T08:10:58;7.55;;;6.10;;
18455;SDS011;9357;49.900;8.208;2023-11-21T08:12:33;7.50;;;5.87;;
18455;SDS011;9357;49.900;8.208;2023-11-21T08:14:04;8.63;;;6.33;;
18455;SDS011;9357;49.900;8.208;2023-11-21T08:15:37;6.73;;;5.80;;
18455;SDS011;9357;49.900;8.208;2023-11-21T08:17:09;8.40;;;6.23;;
18455;SDS011;9357;49.900;8.208;2023-11-21T08:18:44;7.83;;;5.70;;
18455;SDS011;9357;49.900;8.208;2023-11-21T08:20:18;6.32;;;5.40;;
18455;SDS011;9357;49.900;8.208;2023-11-21T08:21:50;7.67;;;6.43;;
18455;SDS011;9357;49.900;8.208;2023-11-21T08:23:25;7.43;;;5.77;;
18455;SDS011;9357;49.900;8.208;2023-11-21T08:24:58;8.63;;;6.33;;
18455;SDS011;9357;49.900;8.208;2023-11-21T08:26:30;8.80;;;6.17;;
18455;SDS011;9357;49.900;8.208;2023-11-21T08:28:03;6.90;;;5.80;;
18455;SDS011;9357;49.900;8.208;2023-11-21T08:29:36;7.43;;;6.10;;
18455;SDS011;9357;49.900;8.208;2023-11-21T08:31:09;8.73;;;6.10;;
18455;SDS011;9357;49.900;8.208;2023-11-21T08:32:43;6.75;;;5.95;;
18455;SDS011;9357;49.900;8.208;2023-11-21T08:34:16;8.73;;;5.63;;
18455;SDS011;9357;49.900;8.208;2023-11-21T08:35:49;7.13;;;6.20;;
18455;SDS011;9357;49.900;8.208;2023-11-21T08:37:22;7.40;;;5.80;;
18455;SDS011;9357;49.900;8.208;2023-11-21T08:38:55;6.87;;;5.87;;
18455;SDS011;9357;49.900;8.208;2023-11-21T08:40:27;8.47;;;5.73;;
18455;SDS011;9357;49.900;8.208;2023-11-21T08:42:00;6.67;;;5.80;;
18455;SDS011;9357;49.900;8.208;2023-11-21T08:43:34;7.83;;;5.73;;
18455;SDS011;9357;49.900;8.208;2023-11-21T08:45:06;6.93;;;5.50;;
18455;SDS011;9357;49.900;8.208;2023-11-21T08:46:40;6.97;;;5.80;;
18455;SDS011;9357;49.900;8.208;2023-11-21T08:48:13;6.13;;;5.30;;
18455;SDS011;9357;49.900;8.208;2023-11-21T08:49:45;5.30;;;4.80;;
18455;SDS011;9357;49.900;8.208;2023-11-21T08:51:20;6.37;;;5.40;;
18455;SDS011;9357;49.900;8.208;2023-11-21T08:52:52;6.83;;;5.33;;
18455;SDS011;9357;49.900;8.208;2023-11-21T08:54:24;5.63;;;4.97;;
18455;SDS011;9357;49.900;8.208;2023-11-21T08:55:57;6.43;;;4.80;;
18455;SDS011;9357;49.900;8.208;2023-11-21T08:57:29;5.13;;;4.60;;
18455;SDS011;9357;49.900;8.208;2023-11-21T08:59:02;5.20;;;4.70;;
18455;SDS011;9357;49.900;8.208;2023-11-21T09:00:34;5.57;;;4.70;;
18455;SDS011;9357;49.900;8.208;2023-11-21T09:02:07;6.10;;;5.00;;
18455;SDS011;9357;49.900;8.208;2023-11-21T09:03:39;6.57;;;4.73;;
18455;SDS011;9357;49.900;8.208;2023-11-21T09:05:12;7.93;;;4.70;;
18455;SDS011;9357;49.900;8.208;2023-11-21T09:06:46;6.00;;;4.83;;
18455;SDS011;9357;49.900;8.208;2023-11-21T09:08:20;5.73;;;4.87;;
18455;SDS011;9357;49.900;8.208;2023-11-21T09:09:53;6.37;;;4.50;;
18455;SDS011;9357;49.900;8.208;2023-11-21T09:11:26;6.03;;;4.47;;
18455;SDS011;9357;49.900;8.208;2023-11-21T09:13:04;6.13;;;4.57;;
18455;SDS011;9357;49.900;8.208;2023-11-21T09:14:36;6.93;;;4.03;;
18455;SDS011;9357;49.900;8.208;2023-11-21T09:16:09;4.80;;;3.97;;
18455;SDS011;9357;49.900;8.208;2023-11-21T09:17:41;5.77;;;4.00;;
18455;SDS011;9357;49.900;8.208;2023-11-21T09:19:16;4.53;;;3.80;;
18455;SDS011;9357;49.900;8.208;2023-11-21T09:20:48;6.43;;;4.03;;
18455;SDS011;9357;49.900;8.208;2023-11-21T09:22:22;6.17;;;4.00;;
18455;SDS011;9357;49.900;8.208;2023-11-21T09:23:56;3.93;;;3.53;;
18455;SDS011;9357;49.900;8.208;2023-11-21T09:25:29;6.63;;;4.00;;
18455;SDS011;9357;49.900;8.208;2023-11-21T09:27:01;6.27;;;3.90;;